Time;durP1;ratioP1;P1;durP2;ratioP2;P2;SDS_P1;SDS_P2;PMS_P1;PMS_P2;Temp;Humidity;BMP_temperature;BMP_pressure;BME280_temperature;BME280_humidity;BME280_pressure;Samples;Min_cycle;Max_cycle;Signal;HPM_P1;HPM_P2
2023/08/01 00:01:09;;;;;;;6.55;2.60;;;16.90;99.90;;;;;;5093549;27;20581;-81
2023/08/01 00:04:01;;;;;;;5.93;2.22;;;16.90;99.90;;;;;;5105662;27;20164;-75
2023/08/01 00:07:12;;;;;;;5.90;2.08;;;16.50;99.90;;;;;;5107160;27;20059;-75
2023/08/01 00:10:11;;;;;;;;;;;16.90;99.90;;;;;;5079413;27;20040;-77
2023/08/01 00:13:04;;;;;;;5.38;2.10;;;16.90;99.90;;;;;;5075234;27;19928;-75
2023/08/01 00:16:20;;;;;;;9.50;2.70;;;16.90;99.90;;;;;;5092837;27;20566;-78
2023/08/01 00:18:47;;;;;;;8.05;2.60;;;16.90;99.90;;;;;;5088410;27;20043;-78
2023/08/01 00:21:48;;;;;;;5.72;2.72;;;16.90;99.90;;;;;;5033653;28;20231;-75
2023/08/01 00:25:00;;;;;;;6.05;2.63;;;16.80;99.90;;;;;;5105497;27;20112;-79
2023/08/01 00:28:04;;;;;;;5.38;2.85;;;16.80;99.90;;;;;;5106610;27;20269;-75
2023/08/01 00:30:46;;;;;;;5.72;2.38;;;16.80;99.90;;;;;;5075628;28;20406;-79
2023/08/01 00:33:40;;;;;;;;;;;16.80;99.90;;;;;;5079496;27;20036;-75
2023/08/01 00:36:46;;;;;;;7.05;2.65;;;16.80;99.90;;;;;;5090326;27;19951;-75
2023/08/01 00:39:33;;;;;;;7.20;2.75;;;16.90;99.90;;;;;;5106119;27;20109;-76
2023/08/01 00:42:27;;;;;;;10.63;3.35;;;16.90;99.90;;;;;;5075005;27;20151;-75
2023/08/01 00:45:12;;;;;;;6.20;2.78;;;16.90;99.90;;;;;;5107552;27;20047;-77
2023/08/01 00:47:59;;;;;;;6.20;2.67;;;16.90;99.90;;;;;;5088533;27;20062;-75
2023/08/01 00:50:50;;;;;;;8.27;2.78;;;16.90;99.90;;;;;;5072201;28;20043;-77
2023/08/01 00:53:36;;;;;;;8.10;3.35;;;16.80;99.90;;;;;;5094960;28;20052;-77
2023/08/01 00:56:39;;;;;;;8.43;3.33;;;17.00;99.90;;;;;;5107437;28;20512;-76
2023/08/01 00:59:37;;;;;;;7.10;3.03;;;17.00;99.90;;;;;;5106663;28;20059;-77
2023/08/01 01:02:50;;;;;;;6.53;2.80;;;17.00;99.90;;;;;;4997740;28;20114;-76
2023/08/01 01:05:52;;;;;;;6.50;2.75;;;17.00;99.90;;;;;;5014643;28;20147;-78
2023/08/01 01:08:33;;;;;;;7.43;4.20;;;16.90;99.90;;;;;;5013597;28;20099;-74
2023/08/01 01:11:45;;;;;;;8.85;2.75;;;16.90;99.90;;;;;;5030413;28;20048;-75
2023/08/01 01:14:43;;;;;;;9.88;3.05;;;16.90;99.90;;;;;;5097582;28;20180;-74
2023/08/01 01:17:40;;;;;;;6.18;3.03;;;16.90;99.90;;;;;;5090197;28;20051;-78
2023/08/01 01:20:25;;;;;;;8.60;3.00;;;16.90;99.90;;;;;;5094038;28;20070;-77
2023/08/01 01:23:19;;;;;;;7.00;3.00;;;16.90;99.90;;;;;;5103487;28;20051;-76
2023/08/01 01:25:49;;;;;;;7.53;3.33;;;17.50;99.90;;;;;;5103849;28;20545;-76
2023/08/01 01:29:21;;;;;;;11.18;3.33;;;16.90;99.90;;;;;;5085574;28;20076;-77
2023/08/01 01:32:28;;;;;;;5.80;3.20;;;16.90;99.90;;;;;;5086296;28;20093;-78
2023/08/01 01:35:39;;;;;;;7.22;3.10;;;16.80;99.90;;;;;;5101691;28;20129;-77
2023/08/01 01:38:46;;;;;;;9.02;3.40;;;17.00;99.90;;;;;;5106578;28;20130;-78
2023/08/01 01:41:54;;;;;;;9.77;3.95;;;17.00;99.90;;;;;;5106736;28;20123;-74
2023/08/01 01:44:41;;;;;;;9.38;3.60;;;16.90;99.90;;;;;;5069146;28;20405;-76
2023/08/01 01:47:54;;;;;;;18.42;3.80;;;16.80;99.90;;;;;;5070233;28;20409;-75
2023/08/01 01:50:44;;;;;;;12.65;3.78;;;16.70;99.90;;;;;;5034700;28;20061;-76
2023/08/01 01:53:35;;;;;;;18.15;2.95;;;16.50;99.90;;;;;;5034614;28;20044;-75
2023/08/01 01:56:12;;;;;;;18.92;2.85;;;16.30;99.90;;;;;;5036190;28;20063;-79
2023/08/01 01:59:13;;;;;;;14.90;2.28;;;16.20;99.90;;;;;;5019463;28;20053;-75
2023/08/01 02:02:16;;;;;;;7.75;1.55;;;16.10;99.90;;;;;;5019172;28;20578;-78
2023/08/01 02:05:23;;;;;;;10.33;1.93;;;16.00;99.90;;;;;;5047233;28;20044;-74
2023/08/01 02:08:25;;;;;;;10.15;1.52;;;15.90;99.90;;;;;;5051169;28;20306;-75
2023/08/01 02:11:33;;;;;;;3.17;1.20;;;16.00;99.90;;;;;;5053614;28;20055;-75
2023/08/01 02:14:36;;;;;;;4.60;1.52;;;15.90;99.90;;;;;;5051309;28;20534;-75
2023/08/01 02:17:32;;;;;;;7.07;1.75;;;15.90;99.90;;;;;;5054193;28;20127;-75
2023/08/01 02:20:34;;;;;;;5.35;1.60;;;15.80;99.90;;;;;;5036770;28;20057;-75
2023/08/01 02:23:38;;;;;;;8.52;1.77;;;15.90;99.90;;;;;;5052167;28;20056;-78
2023/08/01 02:26:28;;;;;;;6.05;1.90;;;15.90;99.90;;;;;;5040463;27;20768;-77
2023/08/01 02:29:15;;;;;;;4.68;1.75;;;15.90;99.90;;;;;;5108497;27;20447;-77
2023/08/01 02:32:01;;;;;;;7.47;1.90;;;15.90;99.90;;;;;;5091757;27;20066;-75
2023/08/01 02:34:56;;;;;;;7.28;1.77;;;15.90;99.90;;;;;;5104716;27;20084;-78
2023/08/01 02:37:49;;;;;;;3.38;1.38;;;15.90;99.90;;;;;;5082175;27;20046;-75
2023/08/01 02:40:34;;;;;;;4.50;1.45;;;15.90;99.90;;;;;;5058604;27;20067;-76
2023/08/01 02:43:26;;;;;;;2.63;1.20;;;15.90;99.90;;;;;;5097358;27;20052;-79
2023/08/01 02:46:18;;;;;;;6.57;1.50;;;15.90;99.90;;;;;;5095079;27;20136;-77
2023/08/01 02:49:15;;;;;;;5.55;1.27;;;16.30;99.90;;;;;;5076141;27;20505;-77
2023/08/01 02:52:13;;;;;;;12.82;1.92;;;15.80;99.90;;;;;;5110675;27;20092;-75
2023/08/01 02:55:00;;;;;;;5.78;1.50;;;15.90;99.90;;;;;;5091087;27;20054;-75
2023/08/01 02:57:53;;;;;;;5.05;1.50;;;15.80;99.90;;;;;;5090205;27;20075;-77
2023/08/01 03:00:36;;;;;;;6.57;2.05;;;16.30;99.90;;;;;;5096383;27;20075;-76
2023/08/01 03:03:44;;;;;;;6.07;1.40;;;15.80;99.90;;;;;;5109637;27;20040;-76
2023/08/01 03:06:48;;;;;;;7.45;1.83;;;15.70;99.90;;;;;;5106551;27;20074;-76
2023/08/01 03:09:43;;;;;;;4.88;1.50;;;15.70;99.90;;;;;;5096371;27;20044;-76
2023/08/01 03:12:51;;;;;;;5.10;1.90;;;15.80;99.90;;;;;;5100079;27;20284;-77
2023/08/01 03:15:52;;;;;;;5.75;1.90;;;15.80;99.90;;;;;;5094449;27;20047;-78
2023/08/01 03:18:48;;;;;;;6.47;2.00;;;15.80;99.90;;;;;;5095548;27;21579;-75
2023/08/01 03:21:49;;;;;;;5.80;1.63;;;15.80;99.90;;;;;;5077288;27;20050;-76
2023/08/01 03:24:24;;;;;;;5.95;1.80;;;15.90;99.90;;;;;;5109508;27;20053;-77
2023/08/01 03:27:28;;;;;;;6.85;1.85;;;15.90;99.90;;;;;;5096110;27;20081;-77
2023/08/01 03:30:24;;;;;;;13.40;2.63;;;15.90;99.90;;;;;;5098758;27;20047;-76
2023/08/01 03:33:26;;;;;;;7.50;2.20;;;16.00;99.90;;;;;;5079427;27;20049;-74
2023/08/01 03:36:11;;;;;;;5.65;2.00;;;16.00;99.90;;;;;;5085898;27;20089;-74
2023/08/01 03:39:20;;;;;;;6.35;2.30;;;16.00;99.90;;;;;;5093066;27;20548;-74
2023/08/01 03:42:15;;;;;;;7.78;2.58;;;16.00;99.90;;;;;;5111274;27;21221;-78
2023/08/01 03:45:11;;;;;;;6.35;2.72;;;15.60;99.90;;;;;;5089518;27;20108;-76
2023/08/01 03:48:06;;;;;;;6.85;2.60;;;16.10;99.90;;;;;;5111114;27;20035;-77
2023/08/01 03:51:17;;;;;;;9.82;3.15;;;16.10;99.90;;;;;;5096292;27;20079;-76
2023/08/01 03:54:09;;;;;;;7.10;2.03;;;16.10;99.90;;;;;;5064926;27;20055;-75
2023/08/01 03:57:04;;;;;;;6.63;2.10;;;16.00;99.90;;;;;;5108408;27;20039;-77
2023/08/01 03:59:59;;;;;;;9.75;2.40;;;15.80;99.90;;;;;;5091955;27;20050;-76
2023/08/01 04:02:44;;;;;;;6.57;1.92;;;15.80;99.90;;;;;;5109774;27;20555;-77
2023/08/01 04:05:36;;;;;;;7.38;1.88;;;15.70;99.90;;;;;;5081286;27;20126;-78
2023/08/01 04:08:27;;;;;;;11.85;1.90;;;15.70;99.90;;;;;;5078223;27;20051;-79
2023/08/01 04:11:30;;;;;;;11.38;2.38;;;15.70;99.90;;;;;;5098358;27;20088;-76
2023/08/01 04:14:38;;;;;;;8.73;2.60;;;15.80;99.90;;;;;;5108482;27;20036;-78
2023/08/01 04:17:29;;;;;;;7.05;2.42;;;15.90;99.90;;;;;;5096203;27;20055;-78
2023/08/01 04:20:45;;;;;;;9.05;2.20;;;16.00;99.90;;;;;;5110011;27;20067;-75
2023/08/01 04:23:28;;;;;;;9.45;2.60;;;15.90;99.90;;;;;;5106034;27;20051;-75
2023/08/01 04:26:20;;;;;;;4.95;2.00;;;16.00;99.90;;;;;;5109716;27;20482;-76
2023/08/01 04:29:07;;;;;;;11.02;2.22;;;16.00;99.90;;;;;;5095793;27;20429;-77
2023/08/01 04:32:02;;;;;;;8.88;2.35;;;16.00;99.90;;;;;;5081367;27;20521;-77
2023/08/01 04:35:18;;;;;;;6.35;1.85;;;16.10;99.90;;;;;;5108004;27;20161;-78
2023/08/01 04:38:10;;;;;;;4.82;1.25;;;16.10;99.90;;;;;;5107872;27;20047;-76
2023/08/01 04:40:56;;;;;;;4.90;1.13;;;16.00;99.90;;;;;;5099422;28;20055;-77
2023/08/01 04:43:44;;;;;;;5.70;1.00;;;15.90;99.90;;;;;;5097950;27;20050;-79
2023/08/01 04:46:41;;;;;;;6.00;1.10;;;15.90;99.90;;;;;;5081732;27;20066;-77
2023/08/01 04:49:37;;;;;;;3.92;1.42;;;15.80;99.90;;;;;;5092176;28;20147;-76
2023/08/01 04:52:38;;;;;;;9.02;1.75;;;15.60;99.90;;;;;;5097854;28;20138;-77
2023/08/01 04:55:33;;;;;;;7.32;1.55;;;15.50;99.90;;;;;;5095571;28;20130;-76
2023/08/01 04:58:37;;;;;;;7.32;1.30;;;15.50;99.90;;;;;;5103121;27;20043;-76
2023/08/01 05:01:29;;;;;;;13.38;1.80;;;15.50;99.90;;;;;;5091044;28;20626;-77
2023/08/01 05:04:17;;;;;;;14.32;1.77;;;15.50;99.90;;;;;;5073247;28;20139;-79
2023/08/01 05:07:12;;;;;;;9.60;1.52;;;15.50;99.90;;;;;;5091534;28;20052;-80
2023/08/01 05:10:10;;;;;;;6.10;1.30;;;15.50;99.90;;;;;;5095646;28;20043;-76
2023/08/01 05:13:18;;;;;;;7.45;1.58;;;15.30;99.90;;;;;;5071422;28;20047;-80
2023/08/01 05:16:16;;;;;;;12.00;1.70;;;15.40;99.90;;;;;;5095341;28;20054;-77
2023/08/01 05:19:02;;;;;;;8.40;1.50;;;15.40;99.90;;;;;;5089386;28;20069;-76
2023/08/01 05:21:55;;;;;;;4.10;1.30;;;15.40;99.90;;;;;;5108521;28;20048;-77
2023/08/01 05:24:41;;;;;;;7.82;1.33;;;15.40;99.90;;;;;;5104348;28;20046;-78
2023/08/01 05:27:36;;;;;;;4.95;1.25;;;15.40;99.90;;;;;;5079384;28;20063;-80
2023/08/01 05:30:07;;;;;;;9.25;1.63;;;15.40;99.90;;;;;;5105655;28;20046;-75
2023/08/01 05:32:55;;;;;;;6.72;1.40;;;15.40;99.90;;;;;;5079180;28;20057;-75
2023/08/01 05:36:11;;;;;;;7.78;1.40;;;15.40;99.90;;;;;;5097939;28;20137;-77
2023/08/01 05:39:15;;;;;;;8.52;1.88;;;15.50;99.90;;;;;;5086045;28;20548;-80
2023/08/01 05:42:09;;;;;;;10.50;1.58;;;15.60;99.90;;;;;;5024444;28;20206;-76
2023/08/01 05:45:25;;;;;;;10.98;1.98;;;15.60;99.90;;;;;;5014736;28;20192;-76
2023/08/01 05:48:17;;;;;;;13.93;2.40;;;15.70;99.90;;;;;;4998652;28;20431;-77
2023/08/01 05:51:20;;;;;;;11.95;2.67;;;15.70;99.90;;;;;;5011186;28;20151;-76
2023/08/01 05:54:15;;;;;;;8.43;1.58;;;15.60;99.90;;;;;;4997637;28;20509;-78
2023/08/01 05:57:16;;;;;;;8.73;2.03;;;15.00;99.90;;;;;;4996824;28;20050;-76
2023/08/01 06:00:02;;;;;;;10.85;1.98;;;15.70;99.90;;;;;;4990888;28;20087;-79
2023/08/01 06:03:12;;;;;;;8.80;2.00;;;15.70;99.90;;;;;;4992963;28;20201;-76
2023/08/01 06:06:09;;;;;;;10.23;2.05;;;15.70;99.90;;;;;;5008594;28;20168;-79
2023/08/01 06:09:13;;;;;;;10.95;2.15;;;15.70;99.90;;;;;;4997632;28;20619;-79
2023/08/01 06:12:12;;;;;;;15.93;3.05;;;15.70;99.90;;;;;;5012532;28;20108;-77
2023/08/01 06:14:39;;;;;;;15.45;2.88;;;15.70;99.90;;;;;;5033591;28;20474;-79
2023/08/01 06:21:47;;;;;;;10.73;2.30;;;15.80;99.90;;;;;;5108886;27;20055;-77
2023/08/01 06:24:57;;;;;;;17.70;3.03;;;15.80;99.90;;;;;;5090909;27;20075;-74
2023/08/01 06:27:56;;;;;;;16.35;2.30;;;15.80;99.90;;;;;;5107732;27;20047;-75
2023/08/01 06:30:57;;;;;;;10.40;2.40;;;15.80;99.90;;;;;;5096892;27;20453;-80
2023/08/01 06:33:29;;;;;;;14.30;3.40;;;15.80;99.90;;;;;;5079196;27;20124;-78
2023/08/01 06:36:26;;;;;;;10.75;2.17;;;15.80;99.90;;;;;;5110349;27;20077;-80
2023/08/01 06:39:08;;;;;;;16.70;2.80;;;15.80;99.90;;;;;;5106005;27;20572;-74
2023/08/01 06:41:34;;;;;;;15.85;3.10;;;15.80;99.90;;;;;;5109490;27;20521;-77
2023/08/01 06:43:59;;;;;;;11.98;2.95;;;15.80;99.90;;;;;;5074085;27;20051;-80
2023/08/01 06:46:25;;;;;;;14.80;3.10;;;15.90;99.90;;;;;;5083679;27;21373;-77
2023/08/01 06:48:51;;;;;;;16.95;3.78;;;15.90;99.90;;;;;;5106465;27;20050;-78
2023/08/01 06:51:43;;;;;;;10.73;2.20;;;15.90;99.90;;;;;;5070833;27;20053;-82
2023/08/01 06:54:37;;;;;;;9.38;1.80;;;15.90;99.90;;;;;;5101057;27;20100;-78
2023/08/01 06:57:21;;;;;;;11.32;2.05;;;15.90;99.90;;;;;;5101395;27;20501;-79
2023/08/01 07:00:11;;;;;;;12.20;2.20;;;15.90;99.90;;;;;;5114671;27;20047;-81
2023/08/01 07:02:57;;;;;;;9.75;2.80;;;15.90;99.90;;;;;;5114651;27;20047;-78
2023/08/01 07:05:29;;;;;;;12.52;2.40;;;15.80;99.90;;;;;;5098971;27;20059;-80
2023/08/01 07:07:54;;;;;;;18.25;3.15;;;15.80;99.90;;;;;;5088423;27;20140;-78
2023/08/01 07:10:41;;;;;;;13.68;2.95;;;15.80;99.90;;;;;;5115569;27;20435;-78
2023/08/01 07:13:27;;;;;;;13.30;2.83;;;15.70;99.90;;;;;;5098199;27;20054;-81
2023/08/01 07:16:14;;;;;;;10.43;2.85;;;15.70;99.90;;;;;;5115846;27;20039;-78
2023/08/01 07:19:00;;;;;;;;;;;15.60;99.90;;;;;;5071099;27;20127;-79
2023/08/01 07:22:00;;;;;;;8.10;2.10;;;15.70;99.90;;;;;;5114952;27;19930;-78
2023/08/01 07:24:54;;;;;;;14.10;2.35;;;15.70;99.90;;;;;;5113982;27;20039;-79
2023/08/01 07:28:02;;;;;;;10.25;1.80;;;15.70;99.90;;;;;;5114925;27;21037;-79
2023/08/01 07:31:02;;;;;;;10.77;1.60;;;15.70;99.90;;;;;;5115340;27;20047;-77
2023/08/01 07:33:49;;;;;;;10.32;2.00;;;15.70;99.90;;;;;;5114837;27;20066;-78
2023/08/01 07:36:33;;;;;;;9.30;2.20;;;15.70;99.90;;;;;;5084160;27;20904;-79
2023/08/01 07:39:40;;;;;;;10.07;2.25;;;14.90;99.90;;;;;;5095392;27;20048;-78
2023/08/01 07:42:46;;;;;;;9.63;2.40;;;15.90;99.90;;;;;;5112784;27;20043;-77
2023/08/01 07:45:34;;;;;;;8.45;2.15;;;16.20;99.90;;;;;;5103148;27;20043;-77
2023/08/01 07:48:20;;;;;;;6.88;2.08;;;16.40;99.90;;;;;;5102483;27;20049;-79
2023/08/01 07:51:11;;;;;;;7.77;2.10;;;16.40;99.90;;;;;;5086785;27;20043;-80
2023/08/01 07:54:03;;;;;;;15.82;2.83;;;16.60;99.90;;;;;;5107165;27;20335;-78
2023/08/01 07:57:11;;;;;;;7.82;2.40;;;16.80;99.90;;;;;;5102586;27;20044;-77
2023/08/01 08:00:03;;;;;;;13.95;2.15;;;17.00;99.90;;;;;;5094591;27;20043;-77
2023/08/01 08:02:48;;;;;;;8.43;2.25;;;17.00;99.90;;;;;;5115720;27;20078;-77
2023/08/01 08:05:48;;;;;;;8.65;2.72;;;17.40;99.90;;;;;;5087937;27;20457;-77
2023/08/01 08:08:37;;;;;;;7.25;1.90;;;17.60;99.90;;;;;;5111451;27;20516;-78
2023/08/01 08:11:29;;;;;;;4.72;1.63;;;17.90;99.90;;;;;;5113478;27;20426;-77
2023/08/01 08:14:29;;;;;;;8.07;1.83;;;18.20;99.90;;;;;;5093860;27;20043;-77
2023/08/01 08:17:11;;;;;;;5.88;2.00;;;18.30;99.90;;;;;;5104641;27;20040;-78
2023/08/01 08:20:06;;;;;;;7.32;1.85;;;18.30;99.90;;;;;;5114342;27;20036;-77
2023/08/01 08:22:52;;;;;;;11.02;2.00;;;17.80;99.90;;;;;;5095827;27;20058;-79
2023/08/01 08:26:12;;;;;;;7.53;1.73;;;18.10;99.90;;;;;;5103842;27;20478;-78
2023/08/01 08:29:24;;;;;;;10.85;2.33;;;18.00;99.90;;;;;;5087704;27;20582;-75
2023/08/01 08:32:27;;;;;;;7.55;1.73;;;17.90;99.90;;;;;;5103337;27;20134;-75
2023/08/01 08:35:42;;;;;;;7.40;2.00;;;18.10;99.90;;;;;;5097425;27;20444;-75
2023/08/01 08:38:37;;;;;;;10.13;2.00;;;18.10;99.90;;;;;;5103861;27;20052;-77
2023/08/01 08:41:48;;;;;;;9.65;2.30;;;18.00;99.90;;;;;;5113783;27;20528;-76
2023/08/01 08:44:54;;;;;;;7.45;1.77;;;17.90;99.90;;;;;;5096463;27;20044;-76
2023/08/01 08:47:45;;;;;;;6.75;1.80;;;17.70;99.90;;;;;;5116292;27;20038;-76
2023/08/01 08:50:37;;;;;;;11.40;2.40;;;17.50;99.90;;;;;;5103241;28;20047;-76
2023/08/01 08:53:36;;;;;;;9.02;2.78;;;17.30;99.90;;;;;;5083707;28;20048;-77
2023/08/01 08:56:38;;;;;;;7.15;2.40;;;17.40;99.90;;;;;;5104439;28;20067;-79
2023/08/01 08:59:41;;;;;;;7.68;2.83;;;17.50;99.90;;;;;;5113456;27;20089;-76
2023/08/01 09:02:28;;;;;;;9.30;2.35;;;17.70;99.90;;;;;;5113985;27;20065;-78
2023/08/01 09:05:29;;;;;;;8.93;2.50;;;17.80;99.90;;;;;;5052476;28;20104;-76
2023/08/01 09:08:24;;;;;;;8.13;2.00;;;17.80;99.90;;;;;;5114922;28;20051;-78
2023/08/01 09:11:46;;;;;;;8.05;2.15;;;18.20;99.90;;;;;;5106298;28;20042;-76
2023/08/01 09:18:18;;;;;;;6.75;2.00;;;18.00;99.90;;;;;;5058573;28;20444;-76
2023/08/01 09:21:10;;;;;;;12.15;2.40;;;18.10;99.90;;;;;;5031024;28;20039;-76
2023/08/01 09:24:09;;;;;;;13.05;2.83;;;18.20;99.90;;;;;;5047445;28;20048;-76
2023/08/01 09:27:08;;;;;;;8.98;2.30;;;18.40;99.90;;;;;;5113457;27;20138;-76
2023/08/01 09:30:20;;;;;;;6.20;1.88;;;18.50;99.90;;;;;;5113172;27;20047;-76
2023/08/01 09:33:26;;;;;;;6.45;1.83;;;18.50;99.90;;;;;;5104299;27;20056;-76
2023/08/01 09:36:20;;;;;;;8.83;2.63;;;18.80;99.90;;;;;;5100219;27;20031;-77
2023/08/01 09:42:45;;;;;;;6.70;2.25;;;19.40;98.50;;;;;;5108645;27;20300;-75
2023/08/01 09:45:54;;;;;;;9.20;1.98;;;19.60;97.90;;;;;;5118351;27;20136;-76
2023/08/01 09:49:25;;;;;;;8.32;2.10;;;19.90;97.00;;;;;;5118236;27;20051;-77
2023/08/01 09:52:52;;;;;;;5.75;1.88;;;20.10;95.80;;;;;;5116422;27;20118;-77
2023/08/01 09:56:07;;;;;;;7.95;1.70;;;20.20;94.70;;;;;;5116635;27;20498;-76
2023/08/01 09:59:10;;;;;;;7.10;1.50;;;20.30;92.90;;;;;;5105850;27;20574;-76
2023/08/01 10:02:17;;;;;;;9.82;1.90;;;20.80;92.60;;;;;;5116320;27;20058;-76
2023/08/01 10:05:20;;;;;;;5.65;1.52;;;20.60;90.20;;;;;;5099602;27;20097;-76
2023/08/01 10:08:01;;;;;;;;;;;21.00;91.30;;;;;;5117564;27;20124;-76
2023/08/01 10:10:57;;;;;;;4.65;1.35;;;21.10;89.90;;;;;;5100478;27;19931;-76
2023/08/01 10:13:43;;;;;;;6.28;1.73;;;21.30;80.80;;;;;;5066776;27;20092;-75
2023/08/01 10:16:25;;;;;;;5.20;1.27;;;21.30;86.30;;;;;;5084562;27;20051;-79
2023/08/01 10:19:13;;;;;;;3.92;1.17;;;21.00;84.10;;;;;;5117709;27;20043;-78
2023/08/01 10:22:08;;;;;;;5.82;1.40;;;20.80;84.70;;;;;;5117825;27;20043;-77
2023/08/01 10:25:01;;;;;;;6.13;1.35;;;20.90;85.60;;;;;;5117792;27;20508;-78
2023/08/01 10:28:19;;;;;;;7.30;1.35;;;20.90;85.80;;;;;;5099181;27;20947;-76
2023/08/01 10:31:23;;;;;;;6.30;1.80;;;20.50;81.30;;;;;;5100234;27;20138;-76
2023/08/01 10:34:13;;;;;;;9.55;1.60;;;20.30;87.00;;;;;;5105518;27;20396;-76
2023/08/01 10:37:21;;;;;;;10.15;2.08;;;20.00;87.20;;;;;;5118189;27;20092;-77
2023/08/01 10:40:09;;;;;;;10.27;2.00;;;19.70;90.40;;;;;;5099605;27;20043;-77
2023/08/01 10:43:01;;;;;;;7.40;1.92;;;19.60;91.10;;;;;;5104474;27;20042;-76
2023/08/01 10:46:08;;;;;;;11.85;2.13;;;19.50;92.10;;;;;;5101990;27;20044;-77
2023/08/01 10:49:23;;;;;;;9.38;2.08;;;19.90;92.70;;;;;;5103269;27;20050;-77
2023/08/01 10:55:48;;;;;;;8.25;2.05;;;20.10;90.90;;;;;;5113883;27;20088;-76
2023/08/01 10:58:34;;;;;;;6.18;1.85;;;19.90;90.40;;;;;;5117729;27;20047;-77
2023/08/01 11:01:20;;;;;;;6.35;1.80;;;20.00;90.60;;;;;;5099856;27;20126;-78
2023/08/01 11:04:13;;;;;;;9.23;2.45;;;20.00;90.70;;;;;;5088317;27;20494;-77
2023/08/01 11:07:05;;;;;;;6.38;1.70;;;20.10;85.10;;;;;;5101180;27;20047;-76
2023/08/01 11:10:35;;;;;;;8.50;1.65;;;20.10;87.10;;;;;;5093974;27;20054;-77
2023/08/01 11:13:27;;;;;;;7.97;1.80;;;20.60;84.10;;;;;;5108416;27;20071;-77
2023/08/01 11:16:18;;;;;;;6.28;1.73;;;20.90;81.20;;;;;;5117401;27;20047;-76
2023/08/01 11:19:04;;;;;;;7.20;1.90;;;21.00;75.40;;;;;;5098181;27;20035;-76
2023/08/01 11:22:16;;;;;;;7.85;1.58;;;21.10;72.90;;;;;;5088450;27;20149;-77
2023/08/01 11:25:02;;;;;;;6.10;2.00;;;21.10;70.50;;;;;;5116047;27;20066;-77
2023/08/01 11:27:48;;;;;;;7.38;2.00;;;21.30;73.80;;;;;;5100037;27;20059;-77
2023/08/01 11:30:34;;;;;;;7.53;1.88;;;21.40;74.00;;;;;;5116949;27;20062;-77
2023/08/01 11:33:20;;;;;;;5.80;1.70;;;21.30;73.70;;;;;;5105692;27;20040;-76
2023/08/01 11:36:13;;;;;;;8.68;1.90;;;21.30;75.90;;;;;;5096936;27;20047;-77
2023/08/01 11:39:07;;;;;;;6.53;1.67;;;20.80;76.20;;;;;;5100303;27;20059;-76
2023/08/01 11:42:00;;;;;;;6.47;1.60;;;20.60;79.80;;;;;;5083122;27;20051;-76
2023/08/01 11:45:34;;;;;;;10.50;2.33;;;20.30;81.20;;;;;;5096826;27;20482;-78
2023/08/01 11:49:29;;;;;;;6.25;1.92;;;20.00;85.30;;;;;;5116623;27;20112;-77
2023/08/01 11:52:48;;;;;;;10.43;1.90;;;19.80;88.20;;;;;;5101853;27;20371;-76
2023/08/01 11:55:41;;;;;;;6.65;1.77;;;20.10;89.30;;;;;;5093667;27;20489;-77
2023/08/01 11:58:37;;;;;;;11.98;1.83;;;20.60;85.50;;;;;;5040097;28;20098;-77
2023/08/01 12:01:40;;;;;;;10.35;1.83;;;20.60;83.90;;;;;;5061420;28;20135;-77
2023/08/01 12:04:28;;;;;;;5.70;1.58;;;20.40;84.90;;;;;;4997716;28;20140;-76
2023/08/01 12:07:13;;;;;;;7.07;1.88;;;20.40;88.60;;;;;;5003456;28;20054;-77
2023/08/01 12:10:07;;;;;;;7.03;1.73;;;20.60;90.70;;;;;;4986723;28;20049;-77
2023/08/01 12:12:53;;;;;;;6.18;2.08;;;20.50;89.60;;;;;;4986455;28;20054;-77
2023/08/01 12:15:45;;;;;;;10.23;2.13;;;20.20;89.40;;;;;;5003386;28;20058;-76
2023/08/01 12:18:44;;;;;;;7.20;2.10;;;20.40;91.10;;;;;;4985853;28;20065;-79
2023/08/01 12:21:37;;;;;;;7.70;1.75;;;20.60;91.30;;;;;;4984741;28;20069;-76
2023/08/01 12:27:36;;;;;;;7.50;1.20;;;20.20;89.40;;;;;;5002564;28;20089;-77
2023/08/01 12:30:02;;;;;;;5.75;1.70;;;20.20;87.20;;;;;;5011417;28;20064;-77
2023/08/01 12:32:49;;;;;;;6.78;1.60;;;20.40;87.50;;;;;;5051026;28;20427;-77
2023/08/01 12:35:49;;;;;;;7.57;1.60;;;20.50;85.70;;;;;;5042154;28;20066;-79
2023/08/01 12:38:51;;;;;;;5.82;1.50;;;20.20;84.10;;;;;;5027380;28;20096;-78
2023/08/01 12:41:18;;;;;;;5.75;1.35;;;20.00;87.40;;;;;;4990794;28;20073;-79
2023/08/01 12:44:38;;;;;;;4.85;1.20;;;20.00;87.90;;;;;;5087138;28;20109;-77
2023/08/01 12:48:06;;;;;;;4.75;1.30;;;20.10;84.00;;;;;;5116100;27;21398;-76
2023/08/01 12:51:07;;;;;;;6.57;1.85;;;19.90;82.70;;;;;;5102775;27;20482;-78
2023/08/01 12:54:00;;;;;;;4.13;1.45;;;20.00;85.50;;;;;;5088878;28;20426;-76
2023/08/01 13:00:10;;;;;;;4.93;1.08;;;19.80;82.60;;;;;;5084967;28;20051;-78
2023/08/01 13:03:03;;;;;;;8.50;1.85;;;20.10;84.20;;;;;;5094898;28;20924;-77
2023/08/01 13:05:58;;;;;;;5.72;1.45;;;20.00;82.50;;;;;;5112946;28;20069;-77
2023/08/01 13:09:00;;;;;;;6.13;1.40;;;19.70;84.50;;;;;;5102580;28;20063;-77
2023/08/01 13:12:07;;;;;;;5.93;1.63;;;19.40;86.40;;;;;;5085656;28;20111;-78
2023/08/01 13:14:58;;;;;;;5.25;1.48;;;19.40;88.50;;;;;;5100523;28;20055;-77
2023/08/01 13:18:23;;;;;;;10.60;2.17;;;19.40;88.60;;;;;;5113993;28;20054;-77
2023/08/01 13:21:10;;;;;;;13.85;2.65;;;19.30;90.40;;;;;;5111987;28;20083;-77
2023/08/01 13:24:12;;;;;;;7.82;1.73;;;19.20;92.40;;;;;;5094031;28;20044;-76
2023/08/01 13:27:02;;;;;;;6.88;1.48;;;19.10;93.20;;;;;;5098074;28;20078;-77
2023/08/01 13:29:54;;;;;;;10.18;2.08;;;18.90;94.10;;;;;;5112324;28;20043;-78
2023/08/01 13:32:41;;;;;;;5.70;1.52;;;18.30;94.90;;;;;;5112676;28;20170;-77
2023/08/01 13:35:42;;;;;;;7.72;1.83;;;18.40;95.50;;;;;;5098887;28;20401;-77
2023/08/01 13:38:26;;;;;;;8.02;1.30;;;18.70;95.80;;;;;;5115118;28;20044;-77
2023/08/01 13:41:17;;;;;;;3.92;1.02;;;19.00;95.70;;;;;;5101476;28;20048;-76
2023/08/01 13:44:13;;;;;;;;;;;19.20;94.70;;;;;;5060194;28;20477;-77
2023/08/01 13:47:06;;;;;;;5.65;1.33;;;19.10;94.10;;;;;;5047743;28;19920;-77
2023/08/01 13:50:00;;;;;;;10.80;1.90;;;19.00;94.50;;;;;;5061973;28;20126;-79
2023/08/01 13:53:02;;;;;;;6.35;1.67;;;18.90;94.70;;;;;;5061300;28;20679;-78
2023/08/01 13:55:46;;;;;;;6.60;2.00;;;18.90;95.60;;;;;;5049778;28;20063;-77
2023/08/01 13:58:50;;;;;;;5.00;1.58;;;18.80;95.90;;;;;;5064056;28;20101;-77
2023/08/01 14:01:42;;;;;;;6.22;1.60;;;18.90;95.90;;;;;;5077084;28;20106;-78
2023/08/01 14:04:51;;;;;;;7.63;2.00;;;19.20;95.10;;;;;;5064655;28;20529;-77
2023/08/01 14:07:34;;;;;;;6.95;2.00;;;19.50;94.80;;;;;;5080875;28;20313;-80
2023/08/01 14:10:38;;;;;;;8.65;1.60;;;19.70;94.50;;;;;;5051822;28;20056;-77
2023/08/01 14:13:49;;;;;;;9.20;1.90;;;19.60;92.70;;;;;;5065867;28;20044;-77
2023/08/01 14:16:41;;;;;;;7.50;1.73;;;19.60;92.40;;;;;;5119052;27;20047;-79
2023/08/01 14:19:36;;;;;;;6.43;1.80;;;19.20;92.50;;;;;;5107084;27;20051;-78
2023/08/01 14:22:46;;;;;;;5.53;1.58;;;19.60;92.50;;;;;;5117240;27;20047;-77
2023/08/01 14:25:57;;;;;;;8.25;2.00;;;19.90;91.70;;;;;;5106056;27;20455;-80
2023/08/01 14:29:00;;;;;;;5.82;1.67;;;19.80;90.30;;;;;;5116074;27;20066;-78
2023/08/01 14:31:35;;;;;;;5.82;1.55;;;20.10;89.60;;;;;;5118791;27;20043;-79
2023/08/01 14:34:10;;;;;;;5.60;1.30;;;20.10;88.60;;;;;;5101897;27;20055;-78
2023/08/01 14:37:23;;;;;;;7.60;1.88;;;20.00;85.70;;;;;;5099921;27;20486;-77
2023/08/01 14:40:21;;;;;;;8.95;1.60;;;19.90;83.10;;;;;;5089602;27;20078;-78
2023/08/01 14:43:44;;;;;;;5.82;1.50;;;20.00;85.30;;;;;;5063601;27;20058;-77
2023/08/01 14:46:47;;;;;;;5.35;1.35;;;20.00;82.20;;;;;;5100748;27;20069;-77
2023/08/01 14:49:33;;;;;;;5.85;1.42;;;20.20;82.70;;;;;;5089215;27;20595;-79
2023/08/01 14:52:19;;;;;;;6.97;1.42;;;20.50;82.10;;;;;;5086972;27;21333;-81
2023/08/01 14:54:44;;;;;;;6.80;1.38;;;20.70;82.60;;;;;;5101931;27;20170;-78
2023/08/01 14:57:51;;;;;;;5.95;1.60;;;20.90;81.00;;;;;;5086360;27;20138;-79
2023/08/01 15:00:45;;;;;;;6.83;1.40;;;21.30;78.60;;;;;;5118629;27;20051;-79
2023/08/01 15:03:38;;;;;;;7.03;1.88;;;21.40;68.70;;;;;;5087447;27;20150;-78
2023/08/01 15:06:32;;;;;;;4.90;1.48;;;21.00;66.20;;;;;;5118412;27;20075;-77
2023/08/01 15:09:22;;;;;;;4.18;1.45;;;21.10;67.50;;;;;;5100576;27;20058;-78
2023/08/01 15:12:30;;;;;;;6.78;1.63;;;21.10;67.10;;;;;;5117587;27;20055;-78
2023/08/01 15:15:25;;;;;;;5.50;1.33;;;21.10;66.00;;;;;;5103087;27;20454;-80
2023/08/01 15:18:12;;;;;;;4.80;1.30;;;20.80;64.90;;;;;;5115396;27;20039;-77
2023/08/01 15:21:26;;;;;;;3.63;1.10;;;20.60;68.60;;;;;;5117377;27;20039;-78
2023/08/01 15:24:39;;;;;;;7.60;1.83;;;21.30;72.40;;;;;;5089993;27;20051;-79
2023/08/01 15:27:52;;;;;;;5.30;1.20;;;20.70;70.00;;;;;;5051911;28;20182;-80
2023/08/01 15:30:47;;;;;;;5.50;1.25;;;20.80;69.20;;;;;;5042647;28;20060;-77
2023/08/01 15:33:49;;;;;;;3.92;1.05;;;20.80;67.90;;;;;;5042716;28;20053;-77
2023/08/01 15:36:40;;;;;;;5.43;1.52;;;20.90;66.60;;;;;;5054230;28;20063;-77